Time;durP1;ratioP1;P1;durP2;ratioP2;P2;SDS_P1;SDS_P2;PMS_P1;PMS_P2;Temp;Humidity;BMP_temperature;BMP_pressure;BME280_temperature;BME280_humidity;BME280_pressure;Samples;Min_cycle;Max_cycle;Signal;HPM_P1;HPM_P2
2022/05/21 00:07:29;;;;;;;0.30;0.30;;;;;;;;;;4896842;29;20448;-70
2022/05/21 00:16:32;;;;;;;0.20;0.20;;;;;;;;;;4895266;29;20575;-69
2022/05/21 00:19:18;;;;;;;0.20;0.20;;;;;;;;;;4901156;29;20037;-68
2022/05/21 00:22:10;;;;;;;0.20;0.20;;;;;;;;;;4894614;29;20055;-69
2022/05/21 00:24:36;;;;;;;0.30;0.30;;;;;;;;;;4896218;29;20136;-69
2022/05/21 00:27:19;;;;;;;0.30;0.30;;;;;;;;;;4898851;29;20044;-68
2022/05/21 00:36:07;;;;;;;0.30;0.30;;;;;;;;;;5063187;28;20070;-69
2022/05/21 00:38:33;;;;;;;0.22;0.22;;;;;;;;;;5028248;28;20040;-69
2022/05/21 00:43:59;;;;;;;0.20;0.20;;;;;;;;;;5030902;28;20532;-69
2022/05/21 00:49:52;;;;;;;0.20;0.20;;;;;;;;;;4952893;28;20537;-69
2022/05/21 00:52:20;;;;;;;0.20;0.20;;;;;;;;;;4976701;28;20129;-70
2022/05/21 00:54:54;;;;;;;0.30;0.30;;;;;;;;;;4975574;28;20566;-69
2022/05/21 00:57:23;;;;;;;0.20;0.20;;;;;;;;;;4991934;28;20034;-69
2022/05/21 00:59:48;;;;;;;;;;;;;;;;;;4992467;28;20046;-70
2022/05/21 01:02:26;;;;;;;0.10;0.10;;;;;;;;;;4991941;28;19905;-69
2022/05/21 01:04:56;;;;;;;0.30;0.30;;;;;;;;;;4991954;28;20355;-69
2022/05/21 01:07:21;;;;;;;0.20;0.20;;;;;;;;;;4975634;28;20050;-69
2022/05/21 01:09:54;;;;;;;0.55;0.55;;;;;;;;;;4975482;28;20398;-69
2022/05/21 01:12:21;;;;;;;0.30;0.30;;;;;;;;;;5017194;28;20056;-69
2022/05/21 01:14:49;;;;;;;0.20;0.20;;;;;;;;;;5031125;28;20425;-69
2022/05/21 01:17:17;;;;;;;0.40;0.40;;;;;;;;;;5042919;28;20049;-69
2022/05/21 01:19:54;;;;;;;0.43;0.43;;;;;;;;;;5073137;28;20417;-69
2022/05/21 01:22:26;;;;;;;0.30;0.30;;;;;;;;;;5072919;28;20121;-69
2022/05/21 01:24:52;;;;;;;0.20;0.20;;;;;;;;;;5073073;28;20499;-68
2022/05/21 01:27:19;;;;;;;0.22;0.22;;;;;;;;;;5055414;28;20028;-68
2022/05/21 01:29:47;;;;;;;0.20;0.20;;;;;;;;;;5070683;28;20502;-69
2022/05/21 01:32:17;;;;;;;0.25;0.25;;;;;;;;;;5063913;28;20112;-68
2022/05/21 01:34:42;;;;;;;0.20;0.20;;;;;;;;;;5066664;28;20029;-68
2022/05/21 01:37:08;;;;;;;0.30;0.30;;;;;;;;;;5072790;28;20123;-68
2022/05/21 01:39:33;;;;;;;0.20;0.20;;;;;;;;;;5072884;28;20111;-69
2022/05/21 01:41:59;;;;;;;0.30;0.30;;;;;;;;;;5072726;28;20033;-68
2022/05/21 01:44:39;;;;;;;0.20;0.20;;;;;;;;;;5054846;28;20042;-69
2022/05/21 01:47:10;;;;;;;0.20;0.20;;;;;;;;;;5072677;28;20037;-68
2022/05/21 01:49:36;;;;;;;0.30;0.30;;;;;;;;;;5072575;28;20483;-68
2022/05/21 01:52:03;;;;;;;0.30;0.30;;;;;;;;;;5072729;28;20036;-69
2022/05/21 01:54:29;;;;;;;0.30;0.30;;;;;;;;;;5071905;28;20052;-68
2022/05/21 01:56:54;;;;;;;0.30;0.30;;;;;;;;;;5072671;28;20119;-70
2022/05/21 01:59:20;;;;;;;0.20;0.20;;;;;;;;;;5072461;28;20044;-69
2022/05/21 02:01:46;;;;;;;0.20;0.20;;;;;;;;;;5072583;28;20035;-69
2022/05/21 02:04:12;;;;;;;0.28;0.28;;;;;;;;;;5072232;28;20040;-69
2022/05/21 02:06:37;;;;;;;0.20;0.20;;;;;;;;;;5072410;28;20051;-69
2022/05/21 02:09:03;;;;;;;0.20;0.20;;;;;;;;;;5072277;28;20490;-70
2022/05/21 02:11:28;;;;;;;0.20;0.20;;;;;;;;;;5072414;28;20020;-70
2022/05/21 02:13:54;;;;;;;0.20;0.20;;;;;;;;;;5066044;28;20024;-69
2022/05/21 02:16:20;;;;;;;0.20;0.20;;;;;;;;;;5058396;28;20043;-69
2022/05/21 02:18:46;;;;;;;0.20;0.20;;;;;;;;;;5046921;28;20041;-69
2022/05/21 02:21:11;;;;;;;0.20;0.20;;;;;;;;;;5066117;28;20361;-70
2022/05/21 02:23:37;;;;;;;0.20;0.20;;;;;;;;;;5036598;28;20095;-69
2022/05/21 02:26:02;;;;;;;0.20;0.20;;;;;;;;;;5052280;28;20029;-69
2022/05/21 02:28:28;;;;;;;0.20;0.20;;;;;;;;;;5034525;28;20123;-70
2022/05/21 02:30:54;;;;;;;0.20;0.20;;;;;;;;;;5066180;28;20044;-69
2022/05/21 02:33:21;;;;;;;0.20;0.20;;;;;;;;;;5065867;28;20033;-69
2022/05/21 02:35:46;;;;;;;0.20;0.20;;;;;;;;;;5072054;28;20498;-69
2022/05/21 02:40:55;;;;;;;0.25;0.25;;;;;;;;;;5064693;28;20491;-69
2022/05/21 02:43:21;;;;;;;0.20;0.20;;;;;;;;;;5072133;28;20024;-69
2022/05/21 02:45:47;;;;;;;0.20;0.20;;;;;;;;;;5039097;28;20475;-69
2022/05/21 02:48:13;;;;;;;0.20;0.20;;;;;;;;;;5075357;28;20121;-70
2022/05/21 02:50:38;;;;;;;0.20;0.20;;;;;;;;;;5075814;28;20039;-70
2022/05/21 02:53:05;;;;;;;0.20;0.20;;;;;;;;;;5075390;28;20119;-69
2022/05/21 02:55:31;;;;;;;0.13;0.13;;;;;;;;;;5075491;28;20067;-69
2022/05/21 02:57:57;;;;;;;0.20;0.20;;;;;;;;;;5075470;28;20076;-69
2022/05/21 03:00:23;;;;;;;0.20;0.20;;;;;;;;;;5075262;28;20035;-69
2022/05/21 03:02:49;;;;;;;0.10;0.10;;;;;;;;;;5071311;28;20085;-69
2022/05/21 03:05:15;;;;;;;0.20;0.20;;;;;;;;;;5071283;28;20028;-68
2022/05/21 03:07:42;;;;;;;0.20;0.20;;;;;;;;;;5071597;28;20497;-67
2022/05/21 03:10:23;;;;;;;0.30;0.30;;;;;;;;;;5071172;28;20546;-68
2022/05/21 03:12:49;;;;;;;0.20;0.20;;;;;;;;;;5071679;28;20538;-68
2022/05/21 03:15:14;;;;;;;0.10;0.10;;;;;;;;;;5071203;28;20108;-69
2022/05/21 03:17:40;;;;;;;0.20;0.20;;;;;;;;;;5053534;28;20035;-69
2022/05/21 03:20:07;;;;;;;0.20;0.20;;;;;;;;;;5070800;28;20032;-68
2022/05/21 03:22:32;;;;;;;0.20;0.20;;;;;;;;;;5070994;28;20036;-69
2022/05/21 03:24:58;;;;;;;0.20;0.20;;;;;;;;;;5070987;28;20123;-68
2022/05/21 03:27:24;;;;;;;0.20;0.20;;;;;;;;;;5071022;28;20043;-67
2022/05/21 03:29:49;;;;;;;0.20;0.20;;;;;;;;;;5046210;28;20032;-67
2022/05/21 03:32:15;;;;;;;0.10;0.10;;;;;;;;;;5058938;28;20033;-69
2022/05/21 03:34:41;;;;;;;0.20;0.20;;;;;;;;;;5060864;28;20043;-69
2022/05/21 03:37:06;;;;;;;0.20;0.20;;;;;;;;;;5052976;28;20032;-69
2022/05/21 03:39:32;;;;;;;0.22;0.22;;;;;;;;;;5070885;28;20467;-69
2022/05/21 03:41:57;;;;;;;0.20;0.20;;;;;;;;;;5070491;28;20036;-69
2022/05/21 03:44:25;;;;;;;0.30;0.30;;;;;;;;;;5070377;28;20123;-69
2022/05/21 03:46:52;;;;;;;0.15;0.15;;;;;;;;;;5053034;28;20036;-69
2022/05/21 03:49:18;;;;;;;0.25;0.25;;;;;;;;;;5070018;28;20479;-69
2022/05/21 03:51:44;;;;;;;0.20;0.20;;;;;;;;;;5069758;28;20025;-69
2022/05/21 03:54:10;;;;;;;0.20;0.20;;;;;;;;;;5070255;28;20029;-69
2022/05/21 03:56:36;;;;;;;0.20;0.20;;;;;;;;;;5069957;28;20037;-69
2022/05/21 03:59:02;;;;;;;0.20;0.20;;;;;;;;;;5070468;28;20115;-69
2022/05/21 04:01:27;;;;;;;0.20;0.20;;;;;;;;;;5069739;28;20028;-69
2022/05/21 04:03:54;;;;;;;0.20;0.20;;;;;;;;;;5067767;28;20441;-69
2022/05/21 04:06:21;;;;;;;0.10;0.10;;;;;;;;;;5070668;28;20483;-70
2022/05/21 04:08:47;;;;;;;0.20;0.20;;;;;;;;;;5080442;28;20161;-69
2022/05/21 04:11:12;;;;;;;0.20;0.20;;;;;;;;;;5055811;28;20171;-68
2022/05/21 04:13:38;;;;;;;0.20;0.20;;;;;;;;;;5063893;28;20479;-69
2022/05/21 04:16:04;;;;;;;0.20;0.20;;;;;;;;;;5040525;28;20060;-69
2022/05/21 04:18:29;;;;;;;0.30;0.30;;;;;;;;;;5050274;28;20044;-69
2022/05/21 04:20:55;;;;;;;0.20;0.20;;;;;;;;;;5050270;28;20495;-69
2022/05/21 04:23:21;;;;;;;0.35;0.35;;;;;;;;;;5050386;28;20033;-69
2022/05/21 04:25:48;;;;;;;0.20;0.20;;;;;;;;;;5050524;28;20120;-69
2022/05/21 04:28:14;;;;;;;0.82;0.50;;;;;;;;;;5049759;28;20032;-69
2022/05/21 04:30:39;;;;;;;0.20;0.20;;;;;;;;;;5032371;28;20480;-68
2022/05/21 04:33:05;;;;;;;0.10;0.10;;;;;;;;;;5050025;28;20025;-69
2022/05/21 04:38:19;;;;;;;0.20;0.20;;;;;;;;;;5055238;28;20036;-70
2022/05/21 04:40:53;;;;;;;0.20;0.20;;;;;;;;;;5018719;28;20044;-69
2022/05/21 04:43:19;;;;;;;0.20;0.20;;;;;;;;;;5049971;28;20220;-69
2022/05/21 04:45:44;;;;;;;0.30;0.30;;;;;;;;;;5054525;28;20024;-69
2022/05/21 04:48:10;;;;;;;0.20;0.20;;;;;;;;;;5069679;28;20376;-68
2022/05/21 04:50:37;;;;;;;0.20;0.20;;;;;;;;;;5069356;28;20028;-68
2022/05/21 04:53:03;;;;;;;0.20;0.20;;;;;;;;;;5051784;28;20040;-68
2022/05/21 04:55:28;;;;;;;0.30;0.30;;;;;;;;;;5069437;28;20035;-69
2022/05/21 04:57:54;;;;;;;0.20;0.20;;;;;;;;;;5069891;28;20147;-68
2022/05/21 05:00:19;;;;;;;1.55;1.05;;;;;;;;;;5067824;28;20252;-69
2022/05/21 05:02:45;;;;;;;0.68;0.68;;;;;;;;;;5069528;28;20032;-69
2022/05/21 05:05:14;;;;;;;0.50;0.50;;;;;;;;;;5069092;28;20048;-69
2022/05/21 05:07:40;;;;;;;0.30;0.30;;;;;;;;;;5068618;28;20032;-69
2022/05/21 05:10:06;;;;;;;0.20;0.20;;;;;;;;;;5069198;28;20035;-68
2022/05/21 05:12:32;;;;;;;0.20;0.20;;;;;;;;;;5069232;28;20115;-68
2022/05/21 05:14:58;;;;;;;0.40;0.30;;;;;;;;;;5069487;28;20140;-69
2022/05/21 05:17:24;;;;;;;0.30;0.30;;;;;;;;;;5069473;28;20086;-70
2022/05/21 05:19:55;;;;;;;0.20;0.20;;;;;;;;;;5068951;28;20071;-70
2022/05/21 05:22:21;;;;;;;0.43;0.43;;;;;;;;;;5055755;28;20032;-71
2022/05/21 05:24:47;;;;;;;0.47;0.47;;;;;;;;;;5059644;28;20044;-69
2022/05/21 05:27:13;;;;;;;0.40;0.40;;;;;;;;;;5049002;28;20176;-70
2022/05/21 05:29:38;;;;;;;0.73;0.45;;;;;;;;;;5049371;28;20472;-70
2022/05/21 05:32:04;;;;;;;0.20;0.20;;;;;;;;;;5049141;28;20552;-70
2022/05/21 05:34:30;;;;;;;0.30;0.30;;;;;;;;;;5049239;28;20489;-70
2022/05/21 05:36:56;;;;;;;4.10;0.80;;;;;;;;;;5062821;28;20039;-69
2022/05/21 05:39:22;;;;;;;0.20;0.20;;;;;;;;;;5089096;28;20035;-70
2022/05/21 05:41:47;;;;;;;0.22;0.22;;;;;;;;;;5089219;28;20036;-70
2022/05/21 05:44:13;;;;;;;0.40;0.40;;;;;;;;;;5088763;28;20114;-70
2022/05/21 05:46:39;;;;;;;0.30;0.30;;;;;;;;;;5089429;28;20442;-70
2022/05/21 05:49:04;;;;;;;0.60;0.60;;;;;;;;;;5074452;28;20047;-70
2022/05/21 05:51:30;;;;;;;2.28;0.50;;;;;;;;;;5068317;28;20028;-70
2022/05/21 05:53:55;;;;;;;2.35;0.63;;;;;;;;;;5068113;28;20039;-69
2022/05/21 05:56:21;;;;;;;0.65;0.55;;;;;;;;;;5050531;28;20372;-69
2022/05/21 06:01:37;;;;;;;0.60;0.60;;;;;;;;;;5065107;28;20048;-70
2022/05/21 06:04:03;;;;;;;0.30;0.30;;;;;;;;;;5066509;28;20038;-70
2022/05/21 06:06:30;;;;;;;0.30;0.22;;;;;;;;;;5066917;28;20127;-70
2022/05/21 06:08:56;;;;;;;0.30;0.30;;;;;;;;;;5047203;28;20609;-70
2022/05/21 06:11:21;;;;;;;0.75;0.60;;;;;;;;;;5057026;28;20149;-70
2022/05/21 06:13:47;;;;;;;0.22;0.22;;;;;;;;;;5046645;28;20103;-68
2022/05/21 06:16:14;;;;;;;0.30;0.30;;;;;;;;;;5046130;28;20025;-69
2022/05/21 06:18:39;;;;;;;0.38;0.38;;;;;;;;;;5046046;28;20448;-70
2022/05/21 06:21:05;;;;;;;0.65;0.30;;;;;;;;;;5046221;28;20032;-70
2022/05/21 06:23:31;;;;;;;0.32;0.32;;;;;;;;;;5028770;28;20680;-70
2022/05/21 06:25:59;;;;;;;0.30;0.30;;;;;;;;;;5045763;28;20064;-70
2022/05/21 06:28:25;;;;;;;0.35;0.35;;;;;;;;;;5046112;28;20072;-70
2022/05/21 06:30:51;;;;;;;0.98;0.70;;;;;;;;;;5046199;28;20476;-70
2022/05/21 06:33:17;;;;;;;3.00;0.80;;;;;;;;;;5056607;28;20044;-70
2022/05/21 06:35:44;;;;;;;0.50;0.40;;;;;;;;;;5062592;28;20031;-70
2022/05/21 06:38:09;;;;;;;0.30;0.30;;;;;;;;;;5074171;28;20075;-70
2022/05/21 06:40:35;;;;;;;8.95;2.95;;;;;;;;;;5085145;28;20063;-69
2022/05/21 06:43:00;;;;;;;1.30;0.77;;;;;;;;;;5086313;28;20040;-69
2022/05/21 06:45:32;;;;;;;2.30;0.77;;;;;;;;;;5081924;28;20036;-69
2022/05/21 06:48:02;;;;;;;0.45;0.35;;;;;;;;;;5073666;28;20365;-69
2022/05/21 06:50:27;;;;;;;4.70;1.85;;;;;;;;;;5061693;28;20126;-69
2022/05/21 06:52:54;;;;;;;1.45;0.93;;;;;;;;;;5072441;28;20024;-69
2022/05/21 06:55:21;;;;;;;1.08;0.68;;;;;;;;;;5064143;28;20028;-70
2022/05/21 06:57:47;;;;;;;0.22;0.22;;;;;;;;;;5064557;28;20139;-70
2022/05/21 07:00:13;;;;;;;1.95;1.75;;;;;;;;;;5063954;28;20546;-70
2022/05/21 07:02:40;;;;;;;0.50;0.50;;;;;;;;;;5077745;28;20044;-69
2022/05/21 07:07:49;;;;;;;1.45;1.35;;;;;;;;;;5079235;28;20032;-70
2022/05/21 07:10:22;;;;;;;0.43;0.40;;;;;;;;;;5064518;28;20024;-69
2022/05/21 07:12:48;;;;;;;0.47;0.40;;;;;;;;;;5065570;28;20045;-69
2022/05/21 07:15:14;;;;;;;0.50;0.50;;;;;;;;;;5065729;28;20035;-68
2022/05/21 07:17:39;;;;;;;0.75;0.65;;;;;;;;;;5064532;28;20028;-68
2022/05/21 07:20:06;;;;;;;1.00;0.57;;;;;;;;;;5065123;28;20032;-69
2022/05/21 07:22:32;;;;;;;0.60;0.38;;;;;;;;;;5063273;28;20042;-69
2022/05/21 07:24:57;;;;;;;0.90;0.77;;;;;;;;;;5065676;28;20036;-69
2022/05/21 07:27:23;;;;;;;0.30;0.30;;;;;;;;;;5065921;28;20131;-70
2022/05/21 07:29:48;;;;;;;0.38;0.38;;;;;;;;;;5065197;28;20052;-70
2022/05/21 07:32:16;;;;;;;0.88;0.45;;;;;;;;;;5066009;28;20040;-69
2022/05/21 07:34:41;;;;;;;5.25;1.23;;;;;;;;;;5069143;28;20060;-70
2022/05/21 07:37:06;;;;;;;0.60;0.43;;;;;;;;;;5068980;28;20048;-69
2022/05/21 07:39:32;;;;;;;0.40;0.40;;;;;;;;;;5050844;28;20072;-69
2022/05/21 07:41:57;;;;;;;0.38;0.38;;;;;;;;;;5050296;28;20048;-69
2022/05/21 07:44:23;;;;;;;0.60;0.50;;;;;;;;;;5067854;28;20037;-70
2022/05/21 07:46:49;;;;;;;0.40;0.40;;;;;;;;;;5068883;28;20033;-69
2022/05/21 07:49:14;;;;;;;0.88;0.77;;;;;;;;;;5070123;28;20103;-70
2022/05/21 07:51:40;;;;;;;0.40;0.40;;;;;;;;;;5069821;28;20493;-69
2022/05/21 07:54:05;;;;;;;0.30;0.30;;;;;;;;;;5034213;28;20426;-69
2022/05/21 07:56:32;;;;;;;0.45;0.43;;;;;;;;;;5068751;28;20041;-69
2022/05/21 07:58:57;;;;;;;0.20;0.20;;;;;;;;;;5068841;28;20255;-68
2022/05/21 08:01:23;;;;;;;0.38;0.38;;;;;;;;;;5067842;28;20097;-70
2022/05/21 08:03:49;;;;;;;0.50;0.50;;;;;;;;;;5068080;28;20857;-70
2022/05/21 08:06:15;;;;;;;0.20;0.20;;;;;;;;;;5068604;28;20430;-69
2022/05/21 08:08:40;;;;;;;0.43;0.43;;;;;;;;;;5068725;28;20037;-69
2022/05/21 08:11:06;;;;;;;1.77;0.50;;;;;;;;;;5048623;28;20039;-69
2022/05/21 08:13:31;;;;;;;1.00;0.93;;;;;;;;;;5067747;28;20078;-69
2022/05/21 08:15:56;;;;;;;2.88;0.82;;;;;;;;;;5065522;28;20059;-70
2022/05/21 08:18:22;;;;;;;0.40;0.40;;;;;;;;;;5050321;28;20100;-69
2022/05/21 08:20:49;;;;;;;0.20;0.20;;;;;;;;;;5067951;28;20570;-68
2022/05/21 08:28:43;;;;;;;0.60;0.57;;;;;;;;;;5061363;28;20055;-69
2022/05/21 08:31:09;;;;;;;0.30;0.30;;;;;;;;;;5081114;28;20767;-68
2022/05/21 08:33:35;;;;;;;0.40;0.40;;;;;;;;;;5080448;28;20059;-69
2022/05/21 08:36:00;;;;;;;0.80;0.63;;;;;;;;;;5088019;28;20071;-68
2022/05/21 08:38:26;;;;;;;0.60;0.60;;;;;;;;;;5088290;28;20047;-69
2022/05/21 08:40:55;;;;;;;1.25;0.77;;;;;;;;;;5088057;28;20139;-68
2022/05/21 08:43:24;;;;;;;0.95;0.85;;;;;;;;;;5069381;28;20298;-68
2022/05/21 08:46:15;;;;;;;0.35;0.35;;;;;;;;;;5081000;28;20032;-69
2022/05/21 08:48:48;;;;;;;0.30;0.30;;;;;;;;;;5068677;28;20032;-68
2022/05/21 08:51:18;;;;;;;1.10;0.50;;;;;;;;;;5071576;28;20037;-69
2022/05/21 08:53:46;;;;;;;0.30;0.30;;;;;;;;;;5063737;28;20033;-69
2022/05/21 08:56:12;;;;;;;0.52;0.52;;;;;;;;;;5059950;28;20089;-69
2022/05/21 08:58:38;;;;;;;1.02;0.98;;;;;;;;;;5057833;28;20483;-70
2022/05/21 09:01:03;;;;;;;0.90;0.73;;;;;;;;;;5058981;28;20036;-70
2022/05/21 09:03:29;;;;;;;1.65;1.10;;;;;;;;;;5057508;28;20029;-71
2022/05/21 09:06:14;;;;;;;0.73;0.63;;;;;;;;;;5062616;28;20029;-70
2022/05/21 09:08:44;;;;;;;0.80;0.80;;;;;;;;;;5063278;28;20052;-70
2022/05/21 09:11:22;;;;;;;1.10;0.77;;;;;;;;;;5069396;28;20024;-70
2022/05/21 09:13:52;;;;;;;0.30;0.30;;;;;;;;;;5064924;28;20059;-69
2022/05/21 09:19:03;;;;;;;0.50;0.50;;;;;;;;;;5060241;28;20105;-72
2022/05/21 09:21:31;;;;;;;1.35;1.00;;;;;;;;;;5057529;28;20039;-72
2022/05/21 09:23:58;;;;;;;0.40;0.40;;;;;;;;;;5048054;28;20052;-71
2022/05/21 09:26:25;;;;;;;0.50;0.50;;;;;;;;;;5067205;28;20028;-71
2022/05/21 09:28:51;;;;;;;1.75;0.40;;;;;;;;;;5048435;28;20040;-70
2022/05/21 09:31:30;;;;;;;10.02;0.68;;;;;;;;;;5067043;28;20021;-71
2022/05/21 09:34:10;;;;;;;0.68;0.30;;;;;;;;;;5066750;28;20422;-71
2022/05/21 09:36:35;;;;;;;6.13;1.60;;;;;;;;;;5067297;28;20072;-71
2022/05/21 09:39:01;;;;;;;1.00;0.60;;;;;;;;;;5032589;28;20073;-70
2022/05/21 09:41:32;;;;;;;0.63;0.63;;;;;;;;;;5064122;28;20021;-70
2022/05/21 09:47:09;;;;;;;2.00;0.95;;;;;;;;;;5048671;28;20051;-70
2022/05/21 09:49:35;;;;;;;0.95;0.85;;;;;;;;;;5067178;28;20111;-70
2022/05/21 09:52:05;;;;;;;0.55;0.52;;;;;;;;;;5057090;28;20527;-70
2022/05/21 09:54:33;;;;;;;1.48;0.55;;;;;;;;;;5078284;28;20070;-71
2022/05/21 09:56:59;;;;;;;0.45;0.45;;;;;;;;;;5057341;28;20064;-71
2022/05/21 09:59:29;;;;;;;1.65;0.77;;;;;;;;;;5065379;28;20446;-70
2022/05/21 10:01:57;;;;;;;1.38;0.63;;;;;;;;;;5070423;28;20574;-71
2022/05/21 10:04:32;;;;;;;1.15;0.73;;;;;;;;;;5048375;28;20040;-70
2022/05/21 10:07:01;;;;;;;3.25;1.08;;;;;;;;;;5065975;28;20031;-71
2022/05/21 10:12:14;;;;;;;0.55;0.50;;;;;;;;;;5064546;28;20152;-71
2022/05/21 10:15:00;;;;;;;0.43;0.40;;;;;;;;;;5064531;28;20037;-71
2022/05/21 10:17:26;;;;;;;1.60;0.90;;;;;;;;;;5049493;28;20052;-71
2022/05/21 10:19:54;;;;;;;0.52;0.52;;;;;;;;;;5064191;28;20047;-70
2022/05/21 10:22:38;;;;;;;1.02;0.65;;;;;;;;;;5065130;28;20031;-70
2022/05/21 10:25:14;;;;;;;2.60;0.55;;;;;;;;;;5053495;28;20043;-71
2022/05/21 10:27:47;;;;;;;1.75;0.70;;;;;;;;;;5067384;28;20066;-72
2022/05/21 10:30:14;;;;;;;1.55;0.82;;;;;;;;;;5086378;28;20111;-71
2022/05/21 10:32:45;;;;;;;2.20;1.08;;;;;;;;;;5087400;28;20144;-74
2022/05/21 10:35:17;;;;;;;0.70;0.70;;;;;;;;;;5087146;28;20040;-72
2022/05/21 10:37:52;;;;;;;2.78;0.63;;;;;;;;;;5070457;28;20032;-72
2022/05/21 10:40:30;;;;;;;2.25;0.80;;;;;;;;;;5088533;28;20325;-72
2022/05/21 10:43:06;;;;;;;0.77;0.65;;;;;;;;;;5070460;28;20386;-72
2022/05/21 10:45:45;;;;;;;0.60;0.60;;;;;;;;;;5088484;28;20115;-72
2022/05/21 10:48:22;;;;;;;1.27;0.82;;;;;;;;;;5088404;28;20976;-73
2022/05/21 10:51:04;;;;;;;0.50;0.40;;;;;;;;;;5088479;28;20090;-73
2022/05/21 10:53:48;;;;;;;0.52;0.40;;;;;;;;;;5088253;28;20051;-72
2022/05/21 10:56:34;;;;;;;0.70;0.45;;;;;;;;;;5088492;28;20047;-74
2022/05/21 10:59:00;;;;;;;0.68;0.60;;;;;;;;;;5088524;28;20074;-73
2022/05/21 11:01:33;;;;;;;1.60;1.17;;;;;;;;;;5088050;28;20036;-74
2022/05/21 11:03:58;;;;;;;1.02;0.82;;;;;;;;;;5070415;28;20097;-72
2022/05/21 11:06:27;;;;;;;0.93;0.80;;;;;;;;;;5089234;28;20028;-72
2022/05/21 11:09:02;;;;;;;4.13;1.20;;;;;;;;;;5091936;28;20063;-71
2022/05/21 11:11:48;;;;;;;0.98;0.70;;;;;;;;;;5091568;28;20032;-73
2022/05/21 11:14:14;;;;;;;0.85;0.75;;;;;;;;;;5080772;28;20093;-74
2022/05/21 11:16:49;;;;;;;1.95;0.98;;;;;;;;;;5057551;28;20426;-72
2022/05/21 11:19:26;;;;;;;2.15;0.77;;;;;;;;;;5051517;28;20079;-72
2022/05/21 11:21:56;;;;;;;1.00;0.68;;;;;;;;;;5051431;28;20039;-73
2022/05/21 11:24:33;;;;;;;1.60;1.42;;;;;;;;;;5064736;28;20088;-73
2022/05/21 11:27:02;;;;;;;1.48;1.00;;;;;;;;;;5071443;28;20292;-72
2022/05/21 11:29:27;;;;;;;1.25;0.68;;;;;;;;;;5070822;28;20025;-72
2022/05/21 11:37:29;;;;;;;1.17;0.80;;;;;;;;;;5067765;28;20048;-74
2022/05/21 11:39:56;;;;;;;0.57;0.40;;;;;;;;;;5063344;28;20513;-72
2022/05/21 11:42:23;;;;;;;2.50;0.82;;;;;;;;;;5068419;28;20067;-73
2022/05/21 11:44:59;;;;;;;1.85;0.73;;;;;;;;;;5071021;28;20044;-72
2022/05/21 11:47:33;;;;;;;0.85;0.47;;;;;;;;;;5069836;28;20396;-72
2022/05/21 11:50:01;;;;;;;0.73;0.55;;;;;;;;;;5064191;28;20064;-74
2022/05/21 11:52:27;;;;;;;0.50;0.50;;;;;;;;;;5050921;28;20036;-72
2022/05/21 11:55:09;;;;;;;1.75;0.82;;;;;;;;;;5043524;28;20498;-72
2022/05/21 11:57:37;;;;;;;0.65;0.50;;;;;;;;;;5063968;28;20117;-73
2022/05/21 12:00:18;;;;;;;1.58;0.75;;;;;;;;;;5054596;28;20031;-73
2022/05/21 12:03:26;;;;;;;1.13;0.68;;;;;;;;;;5052289;28;20090;-73
2022/05/21 12:05:46;;;;;;;2.08;1.58;;;;;;;;;;5052992;28;20114;-73
2022/05/21 12:08:14;;;;;;;0.95;0.65;;;;;;;;;;5056688;28;20045;-73
2022/05/21 12:10:58;;;;;;;0.93;0.70;;;;;;;;;;5039349;28;20032;-74
2022/05/21 12:13:33;;;;;;;0.50;0.45;;;;;;;;;;5032873;28;20033;-74
2022/05/21 12:15:59;;;;;;;2.90;1.35;;;;;;;;;;5057489;28;20039;-70
2022/05/21 12:18:43;;;;;;;3.05;0.80;;;;;;;;;;5058422;28;20037;-73
2022/05/21 12:21:13;;;;;;;0.90;0.68;;;;;;;;;;5057758;28;20078;-72
2022/05/21 12:23:41;;;;;;;1.67;0.55;;;;;;;;;;5056701;28;20047;-73
2022/05/21 12:26:27;;;;;;;1.98;1.00;;;;;;;;;;5062276;28;20036;-73
2022/05/21 12:28:55;;;;;;;2.00;0.98;;;;;;;;;;5069029;28;20121;-73
2022/05/21 12:31:23;;;;;;;1.30;0.80;;;;;;;;;;5044115;28;20028;-72
2022/05/21 12:34:00;;;;;;;1.85;0.90;;;;;;;;;;5081162;28;20074;-73
2022/05/21 12:36:44;;;;;;;1.05;1.00;;;;;;;;;;5076053;28;20111;-72
2022/05/21 12:39:11;;;;;;;0.73;0.68;;;;;;;;;;5073176;28;20028;-73
2022/05/21 12:41:39;;;;;;;0.77;0.70;;;;;;;;;;5088437;28;20032;-74
2022/05/21 12:44:05;;;;;;;0.43;0.43;;;;;;;;;;5087822;28;20130;-74
2022/05/21 12:46:35;;;;;;;0.98;0.80;;;;;;;;;;5087078;28;20154;-74
2022/05/21 12:49:04;;;;;;;2.28;0.90;;;;;;;;;;5087057;28;20036;-72
2022/05/21 12:51:35;;;;;;;2.10;0.80;;;;;;;;;;5068935;28;20036;-73
2022/05/21 12:54:03;;;;;;;1.70;0.70;;;;;;;;;;5086769;28;20024;-74
2022/05/21 12:56:36;;;;;;;0.85;0.73;;;;;;;;;;5057592;28;20033;-74
2022/05/21 12:59:02;;;;;;;1.40;0.88;;;;;;;;;;5071102;28;20379;-73
2022/05/21 13:01:30;;;;;;;1.48;0.60;;;;;;;;;;5065706;28;20036;-74
2022/05/21 13:03:56;;;;;;;2.10;1.10;;;;;;;;;;5077082;28;20032;-72
2022/05/21 13:06:27;;;;;;;10.65;1.60;;;;;;;;;;5069476;28;20364;-72
2022/05/21 13:08:52;;;;;;;3.03;1.30;;;;;;;;;;5086804;28;20367;-72
2022/05/21 13:11:19;;;;;;;4.50;1.80;;;;;;;;;;5088088;28;20118;-72
2022/05/21 13:13:56;;;;;;;0.30;0.30;;;;;;;;;;5088586;28;20036;-74
2022/05/21 13:16:23;;;;;;;0.40;0.40;;;;;;;;;;5071471;28;20120;-75
2022/05/21 13:19:28;;;;;;;0.93;0.60;;;;;;;;;;5072480;28;20538;-73
2022/05/21 13:21:57;;;;;;;4.82;1.23;;;;;;;;;;4955300;28;20474;-75
2022/05/21 13:24:29;;;;;;;0.50;0.50;;;;;;;;;;4989656;28;20046;-75
2022/05/21 13:27:02;;;;;;;1.80;1.02;;;;;;;;;;5019364;28;20123;-74
2022/05/21 13:29:28;;;;;;;0.45;0.40;;;;;;;;;;5068683;28;20055;-74
2022/05/21 13:31:54;;;;;;;3.50;1.23;;;;;;;;;;5069333;28;20067;-75
2022/05/21 13:34:23;;;;;;;2.00;1.00;;;;;;;;;;5069065;28;20451;-75
2022/05/21 13:36:53;;;;;;;10.23;0.90;;;;;;;;;;5069109;28;20491;-74
2022/05/21 13:39:25;;;;;;;4.85;2.33;;;;;;;;;;5069290;28;20070;-74
2022/05/21 13:41:51;;;;;;;0.68;0.65;;;;;;;;;;5051263;28;20036;-74
2022/05/21 13:44:23;;;;;;;0.47;0.45;;;;;;;;;;5068822;28;20123;-74
2022/05/21 13:46:52;;;;;;;1.02;0.68;;;;;;;;;;5051117;28;20509;-73
2022/05/21 13:49:30;;;;;;;0.68;0.43;;;;;;;;;;5068510;28;20095;-73
2022/05/21 13:51:56;;;;;;;0.20;0.20;;;;;;;;;;5069042;28;20074;-73
2022/05/21 13:54:31;;;;;;;0.30;0.30;;;;;;;;;;5067035;28;20444;-75
2022/05/21 13:57:12;;;;;;;2.10;0.60;;;;;;;;;;5067145;28;20119;-76
2022/05/21 13:59:47;;;;;;;0.38;0.38;;;;;;;;;;5049200;28;20028;-75
2022/05/21 14:02:28;;;;;;;1.95;0.73;;;;;;;;;;5048652;28;20102;-75
2022/05/21 14:04:54;;;;;;;0.47;0.47;;;;;;;;;;5066677;28;20468;-76
2022/05/21 14:07:27;;;;;;;2.33;1.05;;;;;;;;;;5066869;28;20043;-75
2022/05/21 14:10:01;;;;;;;0.35;0.35;;;;;;;;;;5068826;28;20032;-75
2022/05/21 14:12:38;;;;;;;2.72;0.85;;;;;;;;;;5068872;28;20043;-74
2022/05/21 14:15:09;;;;;;;1.35;1.10;;;;;;;;;;5068596;28;20040;-74
2022/05/21 14:17:36;;;;;;;2.58;0.80;;;;;;;;;;5068759;28;20595;-74
2022/05/21 14:20:05;;;;;;;1.90;0.95;;;;;;;;;;5050056;28;20035;-75
2022/05/21 14:22:32;;;;;;;1.35;0.57;;;;;;;;;;5050254;28;20377;-74
2022/05/21 14:25:17;;;;;;;0.65;0.50;;;;;;;;;;5068125;28;20040;-74
2022/05/21 14:27:56;;;;;;;0.40;0.40;;;;;;;;;;5068533;28;20530;-74
2022/05/21 14:30:50;;;;;;;0.68;0.68;;;;;;;;;;5068562;28;20560;-74
2022/05/21 14:33:16;;;;;;;0.65;0.50;;;;;;;;;;5050976;28;20052;-74
2022/05/21 14:35:42;;;;;;;0.30;0.30;;;;;;;;;;5068131;28;20032;-74
2022/05/21 14:38:07;;;;;;;0.43;0.43;;;;;;;;;;5068236;28;20225;-74
2022/05/21 14:40:44;;;;;;;1.25;0.80;;;;;;;;;;5069437;28;20411;-75
2022/05/21 14:43:15;;;;;;;0.68;0.50;;;;;;;;;;5054090;28;20530;-73
2022/05/21 14:45:40;;;;;;;1.38;0.63;;;;;;;;;;5072017;28;20380;-74
2022/05/21 14:48:07;;;;;;;3.08;0.98;;;;;;;;;;5071635;28;20031;-74
2022/05/21 14:53:27;;;;;;;0.77;0.70;;;;;;;;;;5071540;28;20153;-73
2022/05/21 14:55:54;;;;;;;1.55;0.75;;;;;;;;;;5071716;28;20036;-74
2022/05/21 14:58:20;;;;;;;3.03;0.98;;;;;;;;;;5071574;28;20025;-74
2022/05/21 15:00:45;;;;;;;2.25;1.05;;;;;;;;;;5071524;28;20044;-75
2022/05/21 15:03:13;;;;;;;0.30;0.30;;;;;;;;;;5071533;28;20036;-75
2022/05/21 15:05:41;;;;;;;5.93;0.73;;;;;;;;;;5037533;28;20388;-74
2022/05/21 15:08:07;;;;;;;0.65;0.57;;;;;;;;;;5053182;28;20040;-74
2022/05/21 15:10:33;;;;;;;1.50;0.80;;;;;;;;;;5071676;28;20071;-74
2022/05/21 15:12:58;;;;;;;1.58;0.88;;;;;;;;;;5071943;28;20086;-74
2022/05/21 15:15:24;;;;;;;0.40;0.40;;;;;;;;;;5071427;28;20535;-74
2022/05/21 15:17:50;;;;;;;0.82;0.70;;;;;;;;;;5071437;28;20060;-74
2022/05/21 15:20:17;;;;;;;0.63;0.60;;;;;;;;;;5071149;28;20041;-75
2022/05/21 15:22:43;;;;;;;2.15;1.20;;;;;;;;;;5071339;28;20112;-75
2022/05/21 15:25:09;;;;;;;2.75;0.45;;;;;;;;;;5071547;28;20527;-76
2022/05/21 15:27:38;;;;;;;1.15;0.95;;;;;;;;;;5053630;28;20028;-75
2022/05/21 15:30:05;;;;;;;3.10;1.15;;;;;;;;;;5070890;28;20041;-75
2022/05/21 15:32:30;;;;;;;2.03;0.80;;;;;;;;;;5071237;28;20025;-75
2022/05/21 15:34:56;;;;;;;1.48;1.05;;;;;;;;;;5053225;28;20381;-73
2022/05/21 15:37:22;;;;;;;0.80;0.63;;;;;;;;;;5070903;28;20024;-74
2022/05/21 15:39:48;;;;;;;0.50;0.40;;;;;;;;;;5053012;28;20364;-74
2022/05/21 15:42:14;;;;;;;1.75;1.08;;;;;;;;;;5052956;28;20031;-75
2022/05/21 15:44:40;;;;;;;0.40;0.40;;;;;;;;;;5052762;28;20052;-74
2022/05/21 15:47:06;;;;;;;2.28;1.13;;;;;;;;;;5070876;28;20545;-74
2022/05/21 15:49:32;;;;;;;7.80;3.10;;;;;;;;;;5052740;28;20040;-74
2022/05/21 15:51:58;;;;;;;1.05;0.68;;;;;;;;;;5069832;28;20043;-74